sensor_id;sensor_type;location;lat;lon;timestamp;P1;durP1;ratioP1;P2;durP2;ratioP2
22675;SDS011;12521;43.310;21.876;2023-02-01T00:02:44;60.0;;;53.0;;
22675;SDS011;12521;43.310;21.876;2023-02-01T00:07:21;51.0;;;44.0;;
22675;SDS011;12521;43.310;21.876;2023-02-01T00:11:58;51.0;;;44.0;;
22675;SDS011;12521;43.310;21.876;2023-02-01T00:16:35;56.0;;;44.0;;
22675;SDS011;12521;43.310;21.876;2023-02-01T00:21:14;56.0;;;44.0;;
22675;SDS011;12521;43.310;21.876;2023-02-01T00:25:54;60.0;;;43.0;;
22675;SDS011;12521;43.310;21.876;2023-02-01T00:30:30;60.0;;;43.0;;
22675;SDS011;12521;43.310;21.876;2023-02-01T00:35:08;61.0;;;45.0;;
22675;SDS011;12521;43.310;21.876;2023-02-01T00:39:45;61.0;;;45.0;;
22675;SDS011;12521;43.310;21.876;2023-02-01T00:44:21;62.0;;;47.0;;
22675;SDS011;12521;43.310;21.876;2023-02-01T00:48:58;62.0;;;47.0;;
22675;SDS011;12521;43.310;21.876;2023-02-01T00:53:36;56.0;;;43.0;;
22675;SDS011;12521;43.310;21.876;2023-02-01T00:58:14;56.0;;;43.0;;
22675;SDS011;12521;43.310;21.876;2023-02-01T01:02:51;56.0;;;43.0;;
22675;SDS011;12521;43.310;21.876;2023-02-01T01:07:27;51.0;;;39.0;;
22675;SDS011;12521;43.310;21.876;2023-02-01T01:12:04;51.0;;;39.0;;
22675;SDS011;12521;43.310;21.876;2023-02-01T01:16:41;36.0;;;30.0;;
22675;SDS011;12521;43.310;21.876;2023-02-01T01:21:18;36.0;;;30.0;;
22675;SDS011;12521;43.310;21.876;2023-02-01T01:25:56;21.0;;;20.0;;
22675;SDS011;12521;43.310;21.876;2023-02-01T01:30:34;21.0;;;20.0;;
22675;SDS011;12521;43.310;21.876;2023-02-01T01:35:11;23.0;;;20.0;;
22675;SDS011;12521;43.310;21.876;2023-02-01T01:39:48;23.0;;;20.0;;
22675;SDS011;12521;43.310;21.876;2023-02-01T01:45:32;25.0;;;21.0;;
22675;SDS011;12521;43.310;21.876;2023-02-01T01:50:16;25.0;;;21.0;;
22675;SDS011;12521;43.310;21.876;2023-02-01T01:55:05;24.0;;;21.0;;
22675;SDS011;12521;43.310;21.876;2023-02-01T01:59:49;24.0;;;21.0;;
22675;SDS011;12521;43.310;21.876;2023-02-01T02:04:43;24.0;;;21.0;;
22675;SDS011;12521;43.310;21.876;2023-02-01T02:09:21;24.0;;;21.0;;
22675;SDS011;12521;43.310;21.876;2023-02-01T02:13:58;28.0;;;24.0;;
22675;SDS011;12521;43.310;21.876;2023-02-01T02:18:47;28.0;;;24.0;;
22675;SDS011;12521;43.310;21.876;2023-02-01T02:24:58;31.0;;;27.0;;
22675;SDS011;12521;43.310;21.876;2023-02-01T02:31:07;31.0;;;27.0;;
22675;SDS011;12521;43.310;21.876;2023-02-01T02:39:06;28.0;;;23.0;;
22675;SDS011;12521;43.310;21.876;2023-02-01T02:44:32;26.0;;;19.0;;
22675;SDS011;12521;43.310;21.876;2023-02-01T02:49:39;26.0;;;19.0;;
22675;SDS011;12521;43.310;21.876;2023-02-01T02:54:46;24.0;;;20.0;;
22675;SDS011;12521;43.310;21.876;2023-02-01T02:59:34;24.0;;;20.0;;
22675;SDS011;12521;43.310;21.876;2023-02-01T03:04:21;22.0;;;20.0;;
22675;SDS011;12521;43.310;21.876;2023-02-01T03:08:59;22.0;;;20.0;;
22675;SDS011;12521;43.310;21.876;2023-02-01T03:13:58;29.0;;;26.0;;
22675;SDS011;12521;43.310;21.876;2023-02-01T03:18:49;29.0;;;26.0;;
22675;SDS011;12521;43.310;21.876;2023-02-01T03:23:39;29.0;;;26.0;;
22675;SDS011;12521;43.310;21.876;2023-02-01T03:28:28;36.0;;;31.0;;
22675;SDS011;12521;43.310;21.876;2023-02-01T03:33:20;36.0;;;31.0;;
22675;SDS011;12521;43.310;21.876;2023-02-01T03:38:12;36.0;;;32.0;;
22675;SDS011;12521;43.310;21.876;2023-02-01T03:43:06;36.0;;;32.0;;
22675;SDS011;12521;43.310;21.876;2023-02-01T03:48:00;37.0;;;34.0;;
22675;SDS011;12521;43.310;21.876;2023-02-01T03:52:50;37.0;;;34.0;;
22675;SDS011;12521;43.310;21.876;2023-02-01T03:57:50;34.0;;;31.0;;
22675;SDS011;12521;43.310;21.876;2023-02-01T04:02:47;34.0;;;31.0;;
22675;SDS011;12521;43.310;21.876;2023-02-01T04:07:27;32.0;;;28.0;;
22675;SDS011;12521;43.310;21.876;2023-02-01T04:12:04;32.0;;;28.0;;
22675;SDS011;12521;43.310;21.876;2023-02-01T04:16:41;30.0;;;26.0;;
22675;SDS011;12521;43.310;21.876;2023-02-01T04:21:18;30.0;;;26.0;;
22675;SDS011;12521;43.310;21.876;2023-02-01T04:25:59;27.0;;;23.0;;
22675;SDS011;12521;43.310;21.876;2023-02-01T04:30:38;27.0;;;23.0;;
22675;SDS011;12521;43.310;21.876;2023-02-01T04:35:14;27.0;;;22.0;;
22675;SDS011;12521;43.310;21.876;2023-02-01T04:39:50;27.0;;;22.0;;
22675;SDS011;12521;43.310;21.876;2023-02-01T04:44:27;27.0;;;22.0;;
22675;SDS011;12521;43.310;21.876;2023-02-01T04:49:03;27.0;;;22.0;;
22675;SDS011;12521;43.310;21.876;2023-02-01T04:53:39;27.0;;;22.0;;
22675;SDS011;12521;43.310;21.876;2023-02-01T04:58:15;40.0;;;35.0;;
22675;SDS011;12521;43.310;21.876;2023-02-01T05:02:52;40.0;;;35.0;;
22675;SDS011;12521;43.310;21.876;2023-02-01T05:07:28;54.0;;;48.0;;
22675;SDS011;12521;43.310;21.876;2023-02-01T05:12:05;54.0;;;48.0;;
22675;SDS011;12521;43.310;21.876;2023-02-01T05:16:45;56.0;;;48.0;;
22675;SDS011;12521;43.310;21.876;2023-02-01T05:21:22;56.0;;;48.0;;
22675;SDS011;12521;43.310;21.876;2023-02-01T05:26:01;57.0;;;47.0;;
22675;SDS011;12521;43.310;21.876;2023-02-01T05:30:38;57.0;;;47.0;;
22675;SDS011;12521;43.310;21.876;2023-02-01T05:35:14;71.0;;;54.0;;
22675;SDS011;12521;43.310;21.876;2023-02-01T05:39:51;71.0;;;54.0;;
22675;SDS011;12521;43.310;21.876;2023-02-01T05:44:28;85.0;;;62.0;;
22675;SDS011;12521;43.310;21.876;2023-02-01T05:49:05;85.0;;;62.0;;
22675;SDS011;12521;43.310;21.876;2023-02-01T05:53:41;85.0;;;62.0;;
22675;SDS011;12521;43.310;21.876;2023-02-01T05:58:17;75.0;;;56.0;;
22675;SDS011;12521;43.310;21.876;2023-02-01T06:02:54;75.0;;;56.0;;
22675;SDS011;12521;43.310;21.876;2023-02-01T06:07:30;65.0;;;51.0;;
22675;SDS011;12521;43.310;21.876;2023-02-01T06:12:07;65.0;;;51.0;;
22675;SDS011;12521;43.310;21.876;2023-02-01T06:16:44;69.0;;;56.0;;
22675;SDS011;12521;43.310;21.876;2023-02-01T06:21:20;69.0;;;56.0;;
22675;SDS011;12521;43.310;21.876;2023-02-01T06:26:00;73.0;;;61.0;;
22675;SDS011;12521;43.310;21.876;2023-02-01T06:30:42;73.0;;;61.0;;
22675;SDS011;12521;43.310;21.876;2023-02-01T06:35:19;74.0;;;61.0;;
22675;SDS011;12521;43.310;21.876;2023-02-01T06:39:56;74.0;;;61.0;;
22675;SDS011;12521;43.310;21.876;2023-02-01T06:44:33;75.0;;;61.0;;
22675;SDS011;12521;43.310;21.876;2023-02-01T06:49:09;75.0;;;61.0;;
22675;SDS011;12521;43.310;21.876;2023-02-01T06:53:46;75.0;;;61.0;;
22675;SDS011;12521;43.310;21.876;2023-02-01T06:58:23;98.0;;;78.0;;
22675;SDS011;12521;43.310;21.876;2023-02-01T07:03:05;98.0;;;78.0;;
22675;SDS011;12521;43.310;21.876;2023-02-01T07:07:41;121.0;;;96.0;;
22675;SDS011;12521;43.310;21.876;2023-02-01T07:12:19;121.0;;;96.0;;
22675;SDS011;12521;43.310;21.876;2023-02-01T07:16:55;106.0;;;87.0;;
22675;SDS011;12521;43.310;21.876;2023-02-01T07:21:31;106.0;;;87.0;;
22675;SDS011;12521;43.310;21.876;2023-02-01T07:26:10;92.0;;;78.0;;
22675;SDS011;12521;43.310;21.876;2023-02-01T07:30:50;92.0;;;78.0;;
22675;SDS011;12521;43.310;21.876;2023-02-01T07:35:28;102.0;;;80.0;;
22675;SDS011;12521;43.310;21.876;2023-02-01T07:40:06;102.0;;;80.0;;
22675;SDS011;12521;43.310;21.876;2023-02-01T07:44:46;113.0;;;81.0;;
22675;SDS011;12521;43.310;21.876;2023-02-01T07:49:23;113.0;;;81.0;;
22675;SDS011;12521;43.310;21.876;2023-02-01T07:53:59;109.0;;;85.0;;
22675;SDS011;12521;43.310;21.876;2023-02-01T07:58:35;109.0;;;85.0;;
22675;SDS011;12521;43.310;21.876;2023-02-01T08:03:12;109.0;;;85.0;;
22675;SDS011;12521;43.310;21.876;2023-02-01T08:07:49;105.0;;;89.0;;
22675;SDS011;12521;43.310;21.876;2023-02-01T08:12:25;105.0;;;89.0;;
22675;SDS011;12521;43.310;21.876;2023-02-01T08:17:02;108.0;;;90.0;;
22675;SDS011;12521;43.310;21.876;2023-02-01T08:21:38;108.0;;;90.0;;
22675;SDS011;12521;43.310;21.876;2023-02-01T08:26:18;112.0;;;90.0;;
22675;SDS011;12521;43.310;21.876;2023-02-01T08:31:05;112.0;;;90.0;;
22675;SDS011;12521;43.310;21.876;2023-02-01T08:35:49;102.0;;;84.0;;
22675;SDS011;12521;43.310;21.876;2023-02-01T08:40:25;102.0;;;84.0;;
22675;SDS011;12521;43.310;21.876;2023-02-01T08:45:03;93.0;;;77.0;;
22675;SDS011;12521;43.310;21.876;2023-02-01T08:49:41;93.0;;;77.0;;
22675;SDS011;12521;43.310;21.876;2023-02-01T08:54:17;74.0;;;62.0;;
22675;SDS011;12521;43.310;21.876;2023-02-01T08:58:53;74.0;;;62.0;;
22675;SDS011;12521;43.310;21.876;2023-02-01T09:03:29;74.0;;;62.0;;
22675;SDS011;12521;43.310;21.876;2023-02-01T09:08:06;55.0;;;46.0;;
22675;SDS011;12521;43.310;21.876;2023-02-01T09:12:43;55.0;;;46.0;;
22675;SDS011;12521;43.310;21.876;2023-02-01T09:17:19;53.0;;;46.0;;
22675;SDS011;12521;43.310;21.876;2023-02-01T09:21:55;53.0;;;46.0;;
22675;SDS011;12521;43.310;21.876;2023-02-01T09:26:32;51.0;;;46.0;;
22675;SDS011;12521;43.310;21.876;2023-02-01T09:31:08;51.0;;;46.0;;
22675;SDS011;12521;43.310;21.876;2023-02-01T09:35:44;55.0;;;48.0;;
22675;SDS011;12521;43.310;21.876;2023-02-01T09:40:21;55.0;;;48.0;;
22675;SDS011;12521;43.310;21.876;2023-02-01T09:45:12;59.0;;;49.0;;
22675;SDS011;12521;43.310;21.876;2023-02-01T09:50:14;59.0;;;49.0;;
22675;SDS011;12521;43.310;21.876;2023-02-01T09:55:13;67.0;;;56.0;;
22675;SDS011;12521;43.310;21.876;2023-02-01T10:00:15;67.0;;;56.0;;
22675;SDS011;12521;43.310;21.876;2023-02-01T10:05:10;75.0;;;64.0;;
22675;SDS011;12521;43.310;21.876;2023-02-01T10:09:59;75.0;;;64.0;;
22675;SDS011;12521;43.310;21.876;2023-02-01T10:15:01;62.0;;;55.0;;
22675;SDS011;12521;43.310;21.876;2023-02-01T10:20:16;62.0;;;55.0;;
22675;SDS011;12521;43.310;21.876;2023-02-01T10:25:26;50.0;;;46.0;;
22675;SDS011;12521;43.310;21.876;2023-02-01T10:30:22;50.0;;;46.0;;
22675;SDS011;12521;43.310;21.876;2023-02-01T10:35:18;56.0;;;51.0;;
22675;SDS011;12521;43.310;21.876;2023-02-01T10:40:17;56.0;;;51.0;;
22675;SDS011;12521;43.310;21.876;2023-02-01T10:45:03;62.0;;;56.0;;
22675;SDS011;12521;43.310;21.876;2023-02-01T10:50:00;62.0;;;56.0;;
22675;SDS011;12521;43.310;21.876;2023-02-01T10:55:40;56.0;;;52.0;;
22675;SDS011;12521;43.310;21.876;2023-02-01T11:00:27;56.0;;;52.0;;
22675;SDS011;12521;43.310;21.876;2023-02-01T11:05:22;50.0;;;48.0;;
22675;SDS011;12521;43.310;21.876;2023-02-01T11:09:59;50.0;;;48.0;;
22675;SDS011;12521;43.310;21.876;2023-02-01T11:14:39;48.0;;;45.0;;
22675;SDS011;12521;43.310;21.876;2023-02-01T11:19:17;48.0;;;45.0;;
22675;SDS011;12521;43.310;21.876;2023-02-01T11:23:54;48.0;;;45.0;;
22675;SDS011;12521;43.310;21.876;2023-02-01T11:28:52;47.0;;;42.0;;
22675;SDS011;12521;43.310;21.876;2023-02-01T11:33:48;47.0;;;42.0;;
22675;SDS011;12521;43.310;21.876;2023-02-01T11:38:36;30.0;;;26.0;;
22675;SDS011;12521;43.310;21.876;2023-02-01T11:43:22;30.0;;;26.0;;
22675;SDS011;12521;43.310;21.876;2023-02-01T11:48:09;13.0;;;9.0;;
22675;SDS011;12521;43.310;21.876;2023-02-01T11:53:11;13.0;;;9.0;;
22675;SDS011;12521;43.310;21.876;2023-02-01T11:59:01;14.0;;;11.0;;
22675;SDS011;12521;43.310;21.876;2023-02-01T12:05:04;16.0;;;13.0;;
22675;SDS011;12521;43.310;21.876;2023-02-01T12:10:21;16.0;;;13.0;;
22675;SDS011;12521;43.310;21.876;2023-02-01T12:15:37;16.0;;;14.0;;
22675;SDS011;12521;43.310;21.876;2023-02-01T12:21:03;16.0;;;14.0;;
22675;SDS011;12521;43.310;21.876;2023-02-01T12:26:33;17.0;;;14.0;;
22675;SDS011;12521;43.310;21.876;2023-02-01T12:31:49;17.0;;;14.0;;
22675;SDS011;12521;43.310;21.876;2023-02-01T12:37:17;20.0;;;16.0;;
22675;SDS011;12521;43.310;21.876;2023-02-01T12:42:36;20.0;;;16.0;;
22675;SDS011;12521;43.310;21.876;2023-02-01T12:47:41;23.0;;;19.0;;
22675;SDS011;12521;43.310;21.876;2023-02-01T12:52:38;23.0;;;19.0;;
22675;SDS011;12521;43.310;21.876;2023-02-01T12:57:30;20.0;;;16.0;;
22675;SDS011;12521;43.310;21.876;2023-02-01T13:02:25;20.0;;;16.0;;
22675;SDS011;12521;43.310;21.876;2023-02-01T13:07:23;16.0;;;13.0;;
22675;SDS011;12521;43.310;21.876;2023-02-01T13:12:14;16.0;;;13.0;;
22675;SDS011;12521;43.310;21.876;2023-02-01T13:17:10;19.0;;;16.0;;
22675;SDS011;12521;43.310;21.876;2023-02-01T13:21:57;19.0;;;16.0;;
22675;SDS011;12521;43.310;21.876;2023-02-01T13:26:41;22.0;;;19.0;;
22675;SDS011;12521;43.310;21.876;2023-02-01T13:31:38;22.0;;;19.0;;
22675;SDS011;12521;43.310;21.876;2023-02-01T13:36:59;39.0;;;30.0;;
22675;SDS011;12521;43.310;21.876;2023-02-01T13:42:19;39.0;;;30.0;;
22675;SDS011;12521;43.310;21.876;2023-02-01T13:47:21;56.0;;;41.0;;
22675;SDS011;12521;43.310;21.876;2023-02-01T13:52:27;56.0;;;41.0;;
22675;SDS011;12521;43.310;21.876;2023-02-01T13:57:37;40.0;;;30.0;;
22675;SDS011;12521;43.310;21.876;2023-02-01T14:03:08;40.0;;;30.0;;
22675;SDS011;12521;43.310;21.876;2023-02-01T14:08:12;23.0;;;19.0;;
22675;SDS011;12521;43.310;21.876;2023-02-01T14:13:20;23.0;;;19.0;;
22675;SDS011;12521;43.310;21.876;2023-02-01T14:18:58;22.0;;;18.0;;
22675;SDS011;12521;43.310;21.876;2023-02-01T14:23:41;22.0;;;18.0;;
22675;SDS011;12521;43.310;21.876;2023-02-01T14:28:30;21.0;;;17.0;;
22675;SDS011;12521;43.310;21.876;2023-02-01T14:33:22;21.0;;;17.0;;
22675;SDS011;12521;43.310;21.876;2023-02-01T14:38:03;17.0;;;14.0;;
22675;SDS011;12521;43.310;21.876;2023-02-01T14:42:45;17.0;;;14.0;;
22675;SDS011;12521;43.310;21.876;2023-02-01T14:47:31;13.0;;;11.0;;
22675;SDS011;12521;43.310;21.876;2023-02-01T14:52:16;13.0;;;11.0;;
22675;SDS011;12521;43.310;21.876;2023-02-01T14:56:58;20.0;;;15.0;;
22675;SDS011;12521;43.310;21.876;2023-02-01T15:01:38;20.0;;;15.0;;
22675;SDS011;12521;43.310;21.876;2023-02-01T15:06:38;26.0;;;19.0;;
22675;SDS011;12521;43.310;21.876;2023-02-01T15:11:21;26.0;;;19.0;;
22675;SDS011;12521;43.310;21.876;2023-02-01T15:16:02;51.0;;;40.0;;
22675;SDS011;12521;43.310;21.876;2023-02-01T15:20:56;51.0;;;40.0;;
22675;SDS011;12521;43.310;21.876;2023-02-01T15:25:39;76.0;;;62.0;;
22675;SDS011;12521;43.310;21.876;2023-02-01T15:30:19;76.0;;;62.0;;
22675;SDS011;12521;43.310;21.876;2023-02-01T15:35:00;80.0;;;62.0;;
22675;SDS011;12521;43.310;21.876;2023-02-01T15:40:05;80.0;;;62.0;;
22675;SDS011;12521;43.310;21.876;2023-02-01T15:44:59;83.0;;;62.0;;
22675;SDS011;12521;43.310;21.876;2023-02-01T15:49:40;83.0;;;62.0;;
22675;SDS011;12521;43.310;21.876;2023-02-01T15:54:37;82.0;;;62.0;;
22675;SDS011;12521;43.310;21.876;2023-02-01T15:59:39;82.0;;;62.0;;
22675;SDS011;12521;43.310;21.876;2023-02-01T16:04:23;82.0;;;62.0;;
22675;SDS011;12521;43.310;21.876;2023-02-01T16:09:13;82.0;;;63.0;;
22675;SDS011;12521;43.310;21.876;2023-02-01T16:13:54;82.0;;;63.0;;
22675;SDS011;12521;43.310;21.876;2023-02-01T16:18:31;100.0;;;79.0;;
22675;SDS011;12521;43.310;21.876;2023-02-01T16:23:08;100.0;;;79.0;;
22675;SDS011;12521;43.310;21.876;2023-02-01T16:27:46;118.0;;;95.0;;
22675;SDS011;12521;43.310;21.876;2023-02-01T16:32:22;118.0;;;95.0;;
22675;SDS011;12521;43.310;21.876;2023-02-01T16:36:59;114.0;;;94.0;;
22675;SDS011;12521;43.310;21.876;2023-02-01T16:41:36;114.0;;;94.0;;
22675;SDS011;12521;43.310;21.876;2023-02-01T16:46:16;111.0;;;94.0;;
22675;SDS011;12521;43.310;21.876;2023-02-01T16:50:58;111.0;;;94.0;;
22675;SDS011;12521;43.310;21.876;2023-02-01T16:55:39;88.0;;;76.0;;
22675;SDS011;12521;43.310;21.876;2023-02-01T17:00:17;88.0;;;76.0;;
22675;SDS011;12521;43.310;21.876;2023-02-01T17:04:55;66.0;;;58.0;;
22675;SDS011;12521;43.310;21.876;2023-02-01T17:09:32;66.0;;;58.0;;
22675;SDS011;12521;43.310;21.876;2023-02-01T17:14:19;66.0;;;58.0;;
22675;SDS011;12521;43.310;21.876;2023-02-01T17:19:00;86.0;;;74.0;;
22675;SDS011;12521;43.310;21.876;2023-02-01T17:23:52;86.0;;;74.0;;
22675;SDS011;12521;43.310;21.876;2023-02-01T17:28:30;107.0;;;89.0;;
22675;SDS011;12521;43.310;21.876;2023-02-01T17:33:17;107.0;;;89.0;;
22675;SDS011;12521;43.310;21.876;2023-02-01T17:38:10;216.0;;;174.0;;
22675;SDS011;12521;43.310;21.876;2023-02-01T17:42:47;216.0;;;174.0;;
22675;SDS011;12521;43.310;21.876;2023-02-01T17:47:24;324.0;;;260.0;;
22675;SDS011;12521;43.310;21.876;2023-02-01T17:52:01;324.0;;;260.0;;
22675;SDS011;12521;43.310;21.876;2023-02-01T17:56:38;291.0;;;232.0;;
22675;SDS011;12521;43.310;21.876;2023-02-01T18:01:19;291.0;;;232.0;;
22675;SDS011;12521;43.310;21.876;2023-02-01T18:05:59;258.0;;;204.0;;
22675;SDS011;12521;43.310;21.876;2023-02-01T18:10:35;258.0;;;204.0;;
22675;SDS011;12521;43.310;21.876;2023-02-01T18:15:16;210.0;;;174.0;;
22675;SDS011;12521;43.310;21.876;2023-02-01T18:19:59;210.0;;;174.0;;
22675;SDS011;12521;43.310;21.876;2023-02-01T18:24:35;163.0;;;143.0;;
22675;SDS011;12521;43.310;21.876;2023-02-01T18:29:11;163.0;;;143.0;;
22675;SDS011;12521;43.310;21.876;2023-02-01T18:33:47;163.0;;;143.0;;
22675;SDS011;12521;43.310;21.876;2023-02-01T18:38:25;158.0;;;140.0;;
22675;SDS011;12521;43.310;21.876;2023-02-01T18:43:02;158.0;;;140.0;;
22675;SDS011;12521;43.310;21.876;2023-02-01T18:47:39;154.0;;;137.0;;
22675;SDS011;12521;43.310;21.876;2023-02-01T18:52:15;154.0;;;137.0;;
22675;SDS011;12521;43.310;21.876;2023-02-01T18:56:51;160.0;;;136.0;;
22675;SDS011;12521;43.310;21.876;2023-02-01T19:01:27;160.0;;;136.0;;
22675;SDS011;12521;43.310;21.876;2023-02-01T19:06:04;167.0;;;134.0;;
22675;SDS011;12521;43.310;21.876;2023-02-01T19:10:41;167.0;;;134.0;;
22675;SDS011;12521;43.310;21.876;2023-02-01T19:15:18;194.0;;;162.0;;
22675;SDS011;12521;43.310;21.876;2023-02-01T19:19:55;194.0;;;162.0;;
22675;SDS011;12521;43.310;21.876;2023-02-01T19:24:31;194.0;;;162.0;;
22675;SDS011;12521;43.310;21.876;2023-02-01T19:29:08;222.0;;;191.0;;
22675;SDS011;12521;43.310;21.876;2023-02-01T19:33:44;222.0;;;191.0;;
22675;SDS011;12521;43.310;21.876;2023-02-01T19:38:20;224.0;;;195.0;;
22675;SDS011;12521;43.310;21.876;2023-02-01T19:42:56;224.0;;;195.0;;
22675;SDS011;12521;43.310;21.876;2023-02-01T19:47:33;227.0;;;199.0;;
22675;SDS011;12521;43.310;21.876;2023-02-01T19:52:10;227.0;;;199.0;;
22675;SDS011;12521;43.310;21.876;2023-02-01T19:56:48;249.0;;;210.0;;
22675;SDS011;12521;43.310;21.876;2023-02-01T20:01:24;249.0;;;210.0;;
22675;SDS011;12521;43.310;21.876;2023-02-01T20:06:02;271.0;;;220.0;;
22675;SDS011;12521;43.310;21.876;2023-02-01T20:10:41;271.0;;;220.0;;
22675;SDS011;12521;43.310;21.876;2023-02-01T20:15:18;296.0;;;243.0;;
22675;SDS011;12521;43.310;21.876;2023-02-01T20:19:55;296.0;;;243.0;;
22675;SDS011;12521;43.310;21.876;2023-02-01T20:24:31;296.0;;;243.0;;
22675;SDS011;12521;43.310;21.876;2023-02-01T20:29:07;322.0;;;266.0;;
22675;SDS011;12521;43.310;21.876;2023-02-01T20:33:45;322.0;;;266.0;;
22675;SDS011;12521;43.310;21.876;2023-02-01T20:38:22;261.0;;;218.0;;
22675;SDS011;12521;43.310;21.876;2023-02-01T20:42:58;261.0;;;218.0;;
22675;SDS011;12521;43.310;21.876;2023-02-01T20:47:35;200.0;;;170.0;;
22675;SDS011;12521;43.310;21.876;2023-02-01T20:52:11;200.0;;;170.0;;
22675;SDS011;12521;43.310;21.876;2023-02-01T20:56:47;227.0;;;194.0;;
22675;SDS011;12521;43.310;21.876;2023-02-01T21:01:24;227.0;;;194.0;;
22675;SDS011;12521;43.310;21.876;2023-02-01T21:06:02;254.0;;;217.0;;
22675;SDS011;12521;43.310;21.876;2023-02-01T21:10:43;254.0;;;217.0;;
22675;SDS011;12521;43.310;21.876;2023-02-01T21:15:33;280.0;;;230.0;;
22675;SDS011;12521;43.310;21.876;2023-02-01T21:20:11;280.0;;;230.0;;
22675;SDS011;12521;43.310;21.876;2023-02-01T21:24:48;306.0;;;242.0;;
22675;SDS011;12521;43.310;21.876;2023-02-01T21:29:24;306.0;;;242.0;;
22675;SDS011;12521;43.310;21.876;2023-02-01T21:34:00;306.0;;;242.0;;
22675;SDS011;12521;43.310;21.876;2023-02-01T21:38:37;306.0;;;253.0;;
22675;SDS011;12521;43.310;21.876;2023-02-01T21:43:13;306.0;;;253.0;;
22675;SDS011;12521;43.310;21.876;2023-02-01T21:47:49;307.0;;;264.0;;
22675;SDS011;12521;43.310;21.876;2023-02-01T21:52:26;307.0;;;264.0;;
22675;SDS011;12521;43.310;21.876;2023-02-01T21:57:02;260.0;;;218.0;;
22675;SDS011;12521;43.310;21.876;2023-02-01T22:01:40;260.0;;;218.0;;
22675;SDS011;12521;43.310;21.876;2023-02-01T22:06:22;213.0;;;171.0;;
22675;SDS011;12521;43.310;21.876;2023-02-01T22:11:03;213.0;;;171.0;;
22675;SDS011;12521;43.310;21.876;2023-02-01T22:15:40;155.0;;;125.0;;
22675;SDS011;12521;43.310;21.876;2023-02-01T22:20:17;155.0;;;125.0;;
22675;SDS011;12521;43.310;21.876;2023-02-01T22:24:53;97.0;;;79.0;;
22675;SDS011;12521;43.310;21.876;2023-02-01T22:29:30;97.0;;;79.0;;
22675;SDS011;12521;43.310;21.876;2023-02-01T22:34:09;97.0;;;79.0;;
22675;SDS011;12521;43.310;21.876;2023-02-01T22:38:47;82.0;;;65.0;;
22675;SDS011;12521;43.310;21.876;2023-02-01T22:43:25;82.0;;;65.0;;
22675;SDS011;12521;43.310;21.876;2023-02-01T22:48:03;67.0;;;51.0;;
22675;SDS011;12521;43.310;21.876;2023-02-01T22:52:39;67.0;;;51.0;;
22675;SDS011;12521;43.310;21.876;2023-02-01T22:57:15;74.0;;;60.0;;
22675;SDS011;12521;43.310;21.876;2023-02-01T23:01:52;74.0;;;60.0;;
22675;SDS011;12521;43.310;21.876;2023-02-01T23:06:30;82.0;;;69.0;;
22675;SDS011;12521;43.310;21.876;2023-02-01T23:11:09;82.0;;;69.0;;
22675;SDS011;12521;43.310;21.876;2023-02-01T23:15:47;98.0;;;78.0;;
22675;SDS011;12521;43.310;21.876;2023-02-01T23:20:23;98.0;;;78.0;;
22675;SDS011;12521;43.310;21.876;2023-02-01T23:24:59;113.0;;;88.0;;
22675;SDS011;12521;43.310;21.876;2023-02-01T23:29:35;113.0;;;88.0;;
22675;SDS011;12521;43.310;21.876;2023-02-01T23:34:12;113.0;;;88.0;;
22675;SDS011;12521;43.310;21.876;2023-02-01T23:38:48;93.0;;;74.0;;
22675;SDS011;12521;43.310;21.876;2023-02-01T23:43:28;93.0;;;74.0;;
22675;SDS011;12521;43.310;21.876;2023-02-01T23:48:06;73.0;;;59.0;;
22675;SDS011;12521;43.310;21.876;2023-02-01T23:52:42;73.0;;;59.0;;
22675;SDS011;12521;43.310;21.876;2023-02-01T23:57:19;72.0;;;58.0;;
